Moccasin, MT (59462)

2:27 PM MDT on September 28, 2016 (GMT -0600)
MesoWest | | Change Station

Elev 4255 ft 47.06 °N, 109.95 °W | Updated 15 days ago

Clear
Clear
67 °F
Feels Like 67 °F
N
13
Wind Variable Wind from South
Gusts 19 mph

Today
High -- | Low -- °F
--% Chance of Precip.
Yesterday
High -- | Low -- °F
Precip. -- in
Pressure 30.17 in
Visibility 10.0 miles
Clouds Clear
Dew Point 47 °F
Humidity 48%
Rainfall in
Snow Depth Not available.
7:15 AM 7:03 PM
Waning Crescent, 4% visible
METAR KLWT 281954Z AUTO 10009KT 10SM CLR 19/09 A3023 RMK AO2 SLP217 T01940089 TSNO
Pressure 30.17 in
Visibility 10.0 miles
Clouds Clear
Dew Point 47 °F
Humidity 48%
Rainfall in
Snow Depth Not available.
7:15 AM 7:03 PM
Waning Crescent, 4% visible
METAR KLWT 281954Z AUTO 10009KT 10SM CLR 19/09 A3023 RMK AO2 SLP217 T01940089 TSNO

10-Day Weather Forecast

Almanac

Astronomy

Sep. 28, 2016 Rise Set
Actual Time
Civil Twilight
Nautical Twilight
Astronomical Twilight
Moon
Length of Visible Light
Length of Day
Tomorrow will be .
, % of the Moon is Illuminated

Today's Extremes

State Highs State Lows

Community

WunderPhotos

Upload Photos

1,942,318 photos uploaded!

WunderBlog® & News

Nearby

Air Quality

  Air Quality AQ Index Pollutant
Not available.

Snow Depth

Station Depth Elevation

Earthquake Activity

City Distance Mag. Time & Date
Minimum magnitude displayed is 2.5.

Coastal Water Temperatures

Place Temperature

Stations

Nearby Weather Stations

Station Location Temp. Windchill Dew Point Humidity Wind Precip. Elev Updated Type
                   

Watches & Warnings

There are currently no watches in effect.